Portada
METAR-TAF:

METAR-TAF

Aeroports :

Aeroport de Casablanca

Casablanca, Marroc

latitud: 33-34N, longitud: 007-40W, altitud: 62 m

Observació

L'informe es va fer fa 1 hora i 6 minuts, a les 17:00 UTC
Vent 7 kt del Oest
Temperatura 15°C
Humitat 88%
Pressió 1024 hPa
Visibilitat: 8000 m
Núvols disperses a una alçada de 1000 ft

METAR: GMMC 101700Z 28007KT 8000 SCT010 15/13 Q1024 NOSIG

Hora: 18:06 (18:06 UTC)


TAF: manca

Observacions i pronòstics meteorològics de més de 4000 aeroports (METAR i TAF).

Les estacions disponibles són els punts grocs i vermells al mapa.

Posi el ratolí al punt desitjat per veure el nom de l'estació.

Feu clic per veure les observacions i els pronòstics meteorològics.

Per canviar el mapa: feu clic els botons verds amb una creu de color negre per apropar; al botó verd amb un guió per allunyar la imatge; o en les fletxes verdes per a mapes adjacents.


METAR-TAF: